Time;durP1;ratioP1;P1;durP2;ratioP2;P2;SDS_P1;SDS_P2;PMS_P1;PMS_P2;Temp;Humidity;BMP_temperature;BMP_pressure;BME280_temperature;BME280_humidity;BME280_pressure;Samples;Min_cycle;Max_cycle;Signal;HPM_P1;HPM_P2
2023/09/04 00:00:25;;;;;;;7.93;2.63;;;;;;;17.25;70.68;94986.78;5073696;28;20036;-81
2023/09/04 00:02:50;;;;;;;5.50;2.58;;;;;;;17.44;72.37;95012.72;5082335;28;20414;-81
2023/09/04 00:05:18;;;;;;;4.45;2.22;;;;;;;17.24;71.37;95020.06;5093555;28;20028;-81
2023/09/04 00:07:44;;;;;;;5.00;2.20;;;;;;;17.11;71.83;95020.56;5093868;28;20102;-81
2023/09/04 00:10:10;;;;;;;4.55;2.10;;;;;;;17.18;70.30;95037.28;5076890;28;20457;-82
2023/09/04 00:12:35;;;;;;;5.38;2.33;;;;;;;17.20;73.43;95026.66;5078021;28;20033;-82
2023/09/04 00:15:00;;;;;;;6.03;2.30;;;;;;;17.06;72.33;95011.53;5058512;28;20064;-81
2023/09/04 00:17:26;;;;;;;3.70;2.47;;;;;;;17.02;74.30;95013.69;5094773;28;20180;-80
2023/09/04 00:19:51;;;;;;;4.90;2.45;;;;;;;16.94;73.21;95006.59;5093637;28;20032;-81
2023/09/04 00:22:17;;;;;;;3.00;2.20;;;;;;;16.73;74.86;94990.44;5074140;28;20032;-80
2023/09/04 00:24:42;;;;;;;5.50;2.50;;;;;;;16.72;76.45;94986.19;5073169;28;20028;-80
2023/09/04 00:27:07;;;;;;;3.13;2.40;;;;;;;16.82;76.32;94986.88;5074412;28;20032;-81
2023/09/04 00:29:33;;;;;;;5.00;2.95;;;;;;;16.77;75.40;94962.97;5056206;28;20033;-81
2023/09/04 00:31:58;;;;;;;3.10;2.40;;;;;;;16.79;75.74;94974.09;5058667;28;20032;-81
2023/09/04 00:34:24;;;;;;;4.82;2.40;;;;;;;16.77;76.54;94968.22;5056289;28;20024;-81
2023/09/04 00:36:49;;;;;;;3.35;2.50;;;;;;;16.77;76.31;94957.72;5074194;28;20051;-80
2023/09/04 00:39:17;;;;;;;4.97;2.63;;;;;;;16.54;76.12;94920.75;5089130;28;20024;-80
2023/09/04 00:41:42;;;;;;;4.00;2.55;;;;;;;16.51;76.33;94935.00;5087700;28;20039;-80
2023/09/04 00:44:07;;;;;;;3.65;2.50;;;;;;;16.38;77.06;94926.78;5057235;28;20028;-80
2023/09/04 00:46:33;;;;;;;3.95;2.70;;;;;;;16.65;76.33;94927.47;5072875;28;20039;-80
2023/09/04 00:48:58;;;;;;;3.28;2.20;;;;;;;16.41;75.81;94895.00;5063916;28;20417;-81
2023/09/04 00:51:24;;;;;;;3.42;2.20;;;;;;;16.66;76.56;94897.63;5085437;28;20035;-79
2023/09/04 00:53:49;;;;;;;3.33;2.30;;;;;;;16.62;76.20;94896.34;5072775;28;20033;-80
2023/09/04 00:56:15;;;;;;;3.85;2.53;;;;;;;16.48;75.95;94880.25;5062088;28;20027;-80
2023/09/04 00:58:40;;;;;;;3.92;2.53;;;;;;;16.50;76.52;94883.53;5057866;28;20442;-79
2023/09/04 01:01:06;;;;;;;4.85;2.38;;;;;;;16.44;76.27;94880.75;5055523;28;20468;-79
2023/09/04 01:03:31;;;;;;;4.03;2.47;;;;;;;16.39;75.96;94881.22;5071633;28;20486;-79
2023/09/04 01:05:57;;;;;;;3.15;2.10;;;;;;;16.41;76.18;94892.38;5055877;28;20029;-80
2023/09/04 01:08:23;;;;;;;4.75;2.63;;;;;;;16.38;76.21;94887.47;5055746;28;20454;-80
2023/09/04 01:11:11;;;;;;;3.30;2.40;;;;;;;16.29;75.93;94875.31;5055574;28;20025;-80
2023/09/04 01:13:39;;;;;;;3.40;2.22;;;;;;;16.29;75.74;94875.31;5057775;28;20107;-80
2023/09/04 01:16:06;;;;;;;4.22;2.80;;;;;;;15.96;76.33;94851.63;5071643;28;20048;-80
2023/09/04 01:18:32;;;;;;;5.97;2.47;;;;;;;15.82;76.61;94842.59;5083382;28;20055;-79
2023/09/04 01:21:04;;;;;;;5.38;2.40;;;;;;;16.04;76.35;94863.94;5093948;28;20036;-80
2023/09/04 01:23:29;;;;;;;5.45;2.53;;;;;;;16.01;76.45;94866.88;5066261;28;20037;-79
2023/09/04 01:26:04;;;;;;;4.53;2.40;;;;;;;15.96;76.23;94859.47;5061405;28;20493;-79
2023/09/04 01:28:47;;;;;;;3.97;2.25;;;;;;;15.96;76.01;94854.25;5058637;28;20035;-79
2023/09/04 01:31:18;;;;;;;4.07;2.50;;;;;;;15.98;75.63;94867.19;5083045;28;20036;-80
2023/09/04 01:33:47;;;;;;;3.35;2.60;;;;;;;15.95;76.29;94868.31;5076929;28;20434;-80
2023/09/04 01:36:13;;;;;;;3.92;2.50;;;;;;;15.82;76.16;94855.69;5073383;28;20170;-79
2023/09/04 01:38:39;;;;;;;3.15;2.20;;;;;;;15.80;76.04;94859.44;5078055;28;20113;-80
2023/09/04 01:41:05;;;;;;;3.28;2.50;;;;;;;15.86;76.11;94866.66;5092039;28;20032;-79
2023/09/04 01:43:31;;;;;;;3.55;2.55;;;;;;;15.61;76.83;94853.44;5058469;28;20032;-80
2023/09/04 01:45:56;;;;;;;3.80;2.63;;;;;;;15.57;76.71;94854.75;5071307;28;20051;-80
2023/09/04 01:48:22;;;;;;;4.13;2.75;;;;;;;15.58;77.26;94851.13;5054670;28;20036;-80
2023/09/04 01:50:47;;;;;;;3.50;2.58;;;;;;;15.51;77.60;94844.88;5073111;28;20056;-80
2023/09/04 01:53:12;;;;;;;3.75;2.70;;;;;;;15.31;77.66;94827.75;5074526;28;20089;-80
2023/09/04 01:55:38;;;;;;;3.90;2.95;;;;;;;15.49;77.45;94851.22;5058286;28;20031;-79
2023/09/04 01:58:03;;;;;;;3.28;2.58;;;;;;;15.45;77.83;94834.22;5091327;28;20420;-79
2023/09/04 02:00:29;;;;;;;3.42;2.47;;;;;;;15.55;77.65;94851.44;5093057;28;20470;-79
2023/09/04 02:02:55;;;;;;;6.18;2.97;;;;;;;15.46;77.95;94857.63;5091091;28;20039;-80
2023/09/04 02:05:20;;;;;;;4.28;2.60;;;;;;;15.56;77.58;94855.69;5072607;28;20029;-80
2023/09/04 02:07:45;;;;;;;4.35;2.80;;;;;;;15.34;78.21;94830.06;5074256;28;20032;-80
2023/09/04 02:10:11;;;;;;;3.60;2.60;;;;;;;15.45;78.13;94863.81;5074508;28;20527;-80
2023/09/04 02:12:36;;;;;;;3.20;2.75;;;;;;;15.31;77.97;94844.28;5077795;28;20041;-80
2023/09/04 02:15:02;;;;;;;4.03;2.60;;;;;;;15.49;78.33;94857.31;5070336;28;20094;-80
2023/09/04 02:17:28;;;;;;;4.90;2.50;;;;;;;15.62;78.68;94855.06;5092313;28;20565;-80
2023/09/04 02:19:53;;;;;;;3.80;2.47;;;;;;;15.52;77.64;94851.75;5078423;28;20039;-80
2023/09/04 02:22:19;;;;;;;3.55;2.65;;;;;;;15.49;77.74;94854.69;5054279;28;20032;-79
2023/09/04 02:24:47;;;;;;;3.75;2.60;;;;;;;15.58;77.92;94861.59;5078538;28;20024;-79
2023/09/04 02:27:13;;;;;;;3.08;2.47;;;;;;;15.55;77.36;94859.31;5066130;28;20123;-79
2023/09/04 02:29:38;;;;;;;3.75;3.05;;;;;;;15.44;78.18;94843.88;5055334;28;20141;-79
2023/09/04 02:32:04;;;;;;;2.80;2.55;;;;;;;15.49;77.15;94861.69;5061825;28;20029;-79
2023/09/04 02:34:30;;;;;;;3.40;2.80;;;;;;;15.65;77.90;94857.38;5070349;28;20482;-79
2023/09/04 02:36:55;;;;;;;3.00;2.70;;;;;;;15.41;77.58;94831.09;5083450;28;20066;-79
2023/09/04 02:39:21;;;;;;;3.95;2.53;;;;;;;15.64;78.65;94847.88;5078224;28;20106;-79
2023/09/04 02:41:46;;;;;;;3.83;3.13;;;;;;;15.71;77.62;94847.28;5074651;28;20052;-79
2023/09/04 02:44:11;;;;;;;3.00;2.70;;;;;;;15.67;75.42;94828.41;5090451;28;20028;-79
2023/09/04 02:46:37;;;;;;;3.58;3.10;;;;;;;15.42;76.40;94827.50;5084621;28;20036;-79
2023/09/04 02:49:02;;;;;;;6.78;3.17;;;;;;;15.60;78.01;94845.72;5070585;28;20028;-79
2023/09/04 02:51:28;;;;;;;4.20;3.10;;;;;;;15.54;77.02;94849.78;5072912;28;20029;-79
2023/09/04 02:53:53;;;;;;;4.78;3.20;;;;;;;15.40;77.89;94835.47;5070291;28;20094;-79
2023/09/04 02:56:19;;;;;;;3.33;3.03;;;;;;;15.49;76.54;94840.75;5071568;28;20033;-79
2023/09/04 02:58:45;;;;;;;3.78;3.40;;;;;;;15.52;77.81;94841.28;5086888;28;20439;-79
2023/09/04 03:01:10;;;;;;;3.95;3.00;;;;;;;15.47;76.80;94842.72;5087768;28;20031;-79
2023/09/04 03:03:36;;;;;;;3.67;3.28;;;;;;;15.38;76.20;94834.03;5072771;28;20089;-79
2023/09/04 03:06:11;;;;;;;3.60;2.67;;;;;;;15.28;74.20;94833.31;5072251;28;20123;-79
2023/09/04 03:08:38;;;;;;;3.50;3.03;;;;;;;15.36;76.52;94833.34;5073659;28;20028;-79
2023/09/04 03:11:10;;;;;;;4.10;2.70;;;;;;;15.32;75.17;94835.47;5072150;28;20040;-79
2023/09/04 03:13:39;;;;;;;3.22;2.70;;;;;;;15.22;74.85;94823.47;5052444;28;20040;-79
2023/09/04 03:16:05;;;;;;;6.95;2.83;;;;;;;15.15;75.77;94824.06;5079487;28;20113;-79
2023/09/04 03:18:32;;;;;;;3.00;2.53;;;;;;;15.25;76.46;94823.16;5070261;28;20039;-79
2023/09/04 03:20:57;;;;;;;5.63;2.70;;;;;;;15.31;74.56;94819.91;5081171;28;20028;-79
2023/09/04 03:23:23;;;;;;;2.92;2.42;;;;;;;15.11;73.48;94812.28;5083872;28;20403;-79
2023/09/04 03:25:48;;;;;;;3.40;2.70;;;;;;;15.57;76.45;94835.56;5053021;28;20035;-79
2023/09/04 03:28:13;;;;;;;3.08;2.20;;;;;;;15.44;74.86;94833.41;5075535;28;20097;-79
2023/09/04 03:30:39;;;;;;;2.40;2.08;;;;;;;15.36;74.57;94842.03;5081746;28;20020;-79
2023/09/04 03:33:04;;;;;;;2.42;1.88;;;;;;;15.25;74.29;94828.38;5054619;28;20417;-80
2023/09/04 03:35:29;;;;;;;2.85;2.20;;;;;;;15.34;74.85;94816.97;5090232;28;20032;-79
2023/09/04 03:37:55;;;;;;;3.22;2.00;;;;;;;15.05;74.27;94809.47;5083160;28;20036;-79
2023/09/04 03:40:24;;;;;;;2.58;2.10;;;;;;;15.09;74.79;94823.88;5082392;28;20028;-79
2023/09/04 03:42:50;;;;;;;2.70;2.10;;;;;;;15.28;76.01;94839.34;5089203;28;20111;-79
2023/09/04 03:45:16;;;;;;;2.60;2.08;;;;;;;15.14;75.66;94832.09;5071161;28;20029;-79
2023/09/04 03:47:42;;;;;;;2.97;2.20;;;;;;;14.96;75.85;94811.22;5091353;28;20154;-79
2023/09/04 03:50:13;;;;;;;2.60;2.10;;;;;;;15.01;76.44;94832.47;5073313;28;20069;-79
2023/09/04 03:52:40;;;;;;;2.90;2.22;;;;;;;14.87;76.98;94820.78;5077154;28;20039;-79
2023/09/04 03:55:09;;;;;;;3.90;2.40;;;;;;;15.00;77.10;94830.03;5069561;28;20444;-79
2023/09/04 03:57:36;;;;;;;3.17;2.50;;;;;;;15.01;76.54;94842.94;5053003;28;20028;-79
2023/09/04 04:00:02;;;;;;;3.42;2.50;;;;;;;14.98;76.81;94854.53;5070736;28;20107;-79
2023/09/04 04:02:28;;;;;;;4.90;2.65;;;;;;;14.97;76.93;94846.84;5084699;28;20110;-79
2023/09/04 04:04:53;;;;;;;4.07;3.10;;;;;;;15.08;77.15;94851.84;5071124;28;20449;-79
2023/09/04 04:07:19;;;;;;;2.85;2.42;;;;;;;14.93;76.21;94840.28;5090076;28;20033;-79
2023/09/04 04:09:47;;;;;;;3.45;2.45;;;;;;;14.97;75.69;94842.44;5088138;28;20482;-79
2023/09/04 04:12:13;;;;;;;4.75;2.40;;;;;;;15.02;77.31;94844.59;5069720;28;20498;-79
2023/09/04 04:14:39;;;;;;;3.88;2.97;;;;;;;15.11;76.97;94854.13;5052471;28;20431;-79
2023/09/04 04:17:04;;;;;;;5.20;2.95;;;;;;;15.16;77.42;94851.88;5070683;28;20043;-79
2023/09/04 04:19:30;;;;;;;3.50;3.00;;;;;;;15.07;76.64;94851.97;5072096;28;20047;-79
2023/09/04 04:21:55;;;;;;;3.72;2.47;;;;;;;14.97;77.01;94849.47;5084788;28;20021;-79
2023/09/04 04:24:21;;;;;;;3.65;2.92;;;;;;;15.07;77.96;94850.19;5089514;28;20414;-79
2023/09/04 04:26:46;;;;;;;3.70;3.10;;;;;;;15.12;77.57;94854.94;5092393;28;20398;-79
2023/09/04 04:29:12;;;;;;;3.75;3.35;;;;;;;15.11;77.25;94848.91;5091233;28;20032;-79
2023/09/04 04:31:38;;;;;;;4.05;3.05;;;;;;;14.92;78.22;94843.88;5063595;28;20486;-79
2023/09/04 04:34:03;;;;;;;4.35;3.90;;;;;;;15.14;77.49;94837.31;5072994;28;20036;-79
2023/09/04 04:36:30;;;;;;;5.15;4.00;;;;;;;15.11;78.35;94835.00;5060139;28;20029;-79
2023/09/04 04:38:55;;;;;;;5.60;3.85;;;;;;;15.02;77.15;94828.91;5057925;28;20020;-79
2023/09/04 04:41:21;;;;;;;3.67;3.33;;;;;;;15.15;76.88;94836.31;5076544;28;20028;-79
2023/09/04 04:43:46;;;;;;;4.00;3.60;;;;;;;15.19;78.34;94833.25;5092852;28;20024;-79
2023/09/04 04:46:14;;;;;;;4.68;3.80;;;;;;;15.35;78.53;94839.53;5048899;28;20024;-80
2023/09/04 04:48:39;;;;;;;4.10;3.55;;;;;;;15.27;78.36;94831.69;5056258;28;20032;-80
2023/09/04 04:51:05;;;;;;;6.13;3.40;;;;;;;15.37;76.46;94837.59;5091361;28;20032;-80
2023/09/04 04:53:30;;;;;;;5.88;3.72;;;;;;;15.46;77.19;94847.16;5059159;28;20035;-79
2023/09/04 04:55:56;;;;;;;5.13;3.60;;;;;;;15.30;77.23;94833.97;5042570;28;20033;-79
2023/09/04 04:58:21;;;;;;;4.07;3.13;;;;;;;15.43;75.64;94852.69;5073641;28;20067;-79
2023/09/04 05:00:47;;;;;;;3.47;3.00;;;;;;;15.30;74.78;94849.69;5078401;28;20024;-79
2023/09/04 05:03:12;;;;;;;3.72;3.00;;;;;;;15.42;75.18;94853.66;5073658;28;20043;-79
2023/09/04 05:05:46;;;;;;;3.90;2.90;;;;;;;15.39;75.89;94848.75;5073458;28;20048;-79
2023/09/04 05:08:11;;;;;;;3.80;2.58;;;;;;;15.41;74.43;94833.72;5058777;28;20024;-79
2023/09/04 05:10:36;;;;;;;3.47;2.60;;;;;;;15.39;74.33;94840.88;5077187;28;20029;-79
2023/09/04 05:13:02;;;;;;;4.18;2.10;;;;;;;15.35;74.04;94840.38;5060245;28;20035;-79
2023/09/04 05:15:27;;;;;;;2.40;1.90;;;;;;;15.30;71.13;94829.56;5083354;28;20132;-79
2023/09/04 05:17:53;;;;;;;4.93;2.10;;;;;;;15.14;72.48;94816.38;5085257;28;20113;-79
2023/09/04 05:20:18;;;;;;;2.63;1.80;;;;;;;15.17;71.78;94834.38;5089587;28;20031;-79
2023/09/04 05:22:44;;;;;;;2.20;1.60;;;;;;;15.17;70.35;94827.34;5085606;28;20040;-79
2023/09/04 05:25:11;;;;;;;2.90;2.00;;;;;;;15.22;71.89;94823.47;5080926;28;20020;-80
2023/09/04 05:27:36;;;;;;;2.67;1.70;;;;;;;15.39;70.91;94825.19;5072740;28;20042;-80
2023/09/04 05:30:02;;;;;;;2.30;1.85;;;;;;;15.24;70.85;94818.88;5089611;28;20028;-80
2023/09/04 05:32:27;;;;;;;2.53;2.00;;;;;;;15.34;72.52;94812.56;5088101;28;20038;-80
2023/09/04 05:34:53;;;;;;;2.40;2.05;;;;;;;15.35;73.19;94823.84;5085639;28;20020;-80
2023/09/04 05:37:19;;;;;;;4.85;2.25;;;;;;;15.33;71.64;94823.19;5048253;28;20036;-79
2023/09/04 05:39:44;;;;;;;3.38;2.03;;;;;;;15.27;71.80;94806.31;5070365;28;20042;-83
2023/09/04 05:42:09;;;;;;;3.90;2.10;;;;;;;15.27;70.92;94811.56;5073288;28;20088;-79
2023/09/04 05:44:35;;;;;;;3.03;2.20;;;;;;;15.24;69.44;94806.63;5081025;28;20481;-80
2023/09/04 05:47:00;;;;;;;4.28;2.20;;;;;;;15.37;70.11;94816.66;5071334;28;20421;-81
2023/09/04 05:49:26;;;;;;;3.45;2.50;;;;;;;15.25;69.63;94803.03;5063105;28;20025;-81
2023/09/04 05:51:52;;;;;;;2.90;2.33;;;;;;;15.30;68.62;94810.44;5090147;28;20521;-80
2023/09/04 05:54:18;;;;;;;4.28;3.25;;;;;;;15.23;67.90;94793.69;5071705;28;20150;-80
2023/09/04 05:56:43;;;;;;;2.92;2.33;;;;;;;15.33;67.22;94799.66;5055938;28;20048;-80
2023/09/04 05:59:09;;;;;;;3.50;2.65;;;;;;;15.26;69.13;94799.44;5067987;28;20036;-81
2023/09/04 06:01:34;;;;;;;3.55;2.95;;;;;;;15.27;66.77;94805.50;5051734;28;20039;-81
2023/09/04 06:03:59;;;;;;;3.10;2.50;;;;;;;15.23;67.05;94804.16;5062322;28;20086;-81
2023/09/04 06:06:25;;;;;;;2.90;2.60;;;;;;;15.24;68.49;94798.78;5083556;28;20103;-81
2023/09/04 06:08:50;;;;;;;3.22;2.72;;;;;;;15.36;67.47;94807.19;5089581;28;20036;-81
2023/09/04 06:11:16;;;;;;;3.42;2.83;;;;;;;15.31;69.23;94804.22;5088705;28;20024;-81
2023/09/04 06:13:41;;;;;;;5.13;2.40;;;;;;;15.18;65.97;94786.31;5054202;28;20036;-82
2023/09/04 06:16:07;;;;;;;4.85;3.00;;;;;;;15.32;67.54;94813.69;5069246;28;20047;-82
2023/09/04 06:18:32;;;;;;;3.13;2.83;;;;;;;15.29;66.46;94814.00;5083988;28;20068;-82
2023/09/04 06:20:57;;;;;;;3.55;2.78;;;;;;;15.24;65.86;94826.72;5084157;28;20058;-82
2023/09/04 06:23:23;;;;;;;3.67;2.50;;;;;;;15.24;66.09;94816.25;5078510;28;20040;-82
2023/09/04 06:25:49;;;;;;;2.83;2.55;;;;;;;15.49;67.00;94823.28;5076598;28;20417;-81
2023/09/04 06:28:15;;;;;;;4.07;2.97;;;;;;;15.37;66.98;94824.50;5082472;28;20457;-80
2023/09/04 06:30:40;;;;;;;4.15;3.03;;;;;;;15.46;66.70;94826.22;5071411;28;20028;-83
2023/09/04 06:33:06;;;;;;;3.80;3.08;;;;;;;15.56;67.38;94818.22;5081741;28;20454;-82
2023/09/04 06:35:31;;;;;;;4.40;2.42;;;;;;;15.37;66.11;94822.72;5064696;28;20028;-82
2023/09/04 06:37:57;;;;;;;3.83;2.90;;;;;;;15.21;65.77;94801.72;5060008;28;20032;-82
2023/09/04 06:40:22;;;;;;;3.25;2.75;;;;;;;15.46;66.24;94820.13;5089054;28;20028;-83
2023/09/04 06:42:48;;;;;;;3.15;2.65;;;;;;;15.57;65.84;94823.31;5059741;28;20040;-80
2023/09/04 06:45:13;;;;;;;3.50;2.95;;;;;;;15.64;66.61;94829.56;5070106;28;20558;-83
2023/09/04 06:47:40;;;;;;;4.03;3.08;;;;;;;15.46;66.88;94828.84;5051931;28;20119;-82
2023/09/04 06:50:06;;;;;;;3.60;2.92;;;;;;;15.56;65.07;94837.38;5050886;28;20021;-82
2023/09/04 06:52:32;;;;;;;3.35;2.90;;;;;;;15.54;65.26;94841.94;5034477;28;20039;-82
2023/09/04 06:54:57;;;;;;;4.40;2.70;;;;;;;15.49;64.59;94841.59;5062778;28;20020;-82
2023/09/04 06:57:22;;;;;;;3.25;2.75;;;;;;;15.57;64.00;94844.25;5086943;28;20047;-82
2023/09/04 06:59:48;;;;;;;2.90;2.58;;;;;;;15.47;63.91;94840.13;5084479;28;20417;-81
2023/09/04 07:02:13;;;;;;;3.22;2.85;;;;;;;15.78;66.95;94848.31;5087395;28;20036;-80
2023/09/04 07:04:39;;;;;;;3.22;2.90;;;;;;;15.73;63.49;94855.81;5061025;28;20032;-81
2023/09/04 07:07:04;;;;;;;3.45;2.90;;;;;;;15.78;63.94;94843.88;5068334;28;20111;-79
2023/09/04 07:09:30;;;;;;;4.72;3.10;;;;;;;15.78;64.23;94848.31;5069687;28;20039;-78
2023/09/04 07:11:55;;;;;;;3.92;2.92;;;;;;;15.80;62.23;94848.97;5083254;28;20024;-78
2023/09/04 07:14:20;;;;;;;4.00;2.72;;;;;;;15.72;63.75;94830.59;5087749;28;20471;-78
2023/09/04 07:16:46;;;;;;;3.50;3.03;;;;;;;15.83;64.12;94851.28;5078767;28;20055;-78
2023/09/04 07:19:13;;;;;;;4.13;3.05;;;;;;;15.70;63.55;94816.84;5068745;28;20074;-78
2023/09/04 07:21:40;;;;;;;3.65;2.90;;;;;;;15.82;63.62;94849.59;5036756;28;20041;-78
2023/09/04 07:24:06;;;;;;;6.15;3.00;;;;;;;15.83;62.71;94846.03;5073296;28;20027;-78
2023/09/04 07:26:31;;;;;;;3.83;3.42;;;;;;;15.88;63.88;94846.38;5088950;28;20028;-78
2023/09/04 07:28:57;;;;;;;3.60;2.90;;;;;;;15.90;62.74;94854.88;5055018;28;20058;-78
2023/09/04 07:31:22;;;;;;;3.45;3.15;;;;;;;16.02;63.41;94845.75;5056400;28;20067;-78
2023/09/04 07:33:48;;;;;;;3.60;3.10;;;;;;;16.01;62.59;94856.38;5091077;28;20020;-78
2023/09/04 07:36:13;;;;;;;3.58;3.05;;;;;;;16.09;62.26;94853.78;5056637;28;20028;-78
2023/09/04 07:38:39;;;;;;;3.88;3.10;;;;;;;16.18;62.15;94852.81;5090915;28;20491;-77
2023/09/04 07:41:04;;;;;;;4.65;3.03;;;;;;;15.97;61.11;94855.91;5091607;28;20389;-77
2023/09/04 07:43:30;;;;;;;3.80;3.22;;;;;;;15.72;61.61;94841.06;5090952;28;20032;-78
2023/09/04 07:45:56;;;;;;;3.25;2.95;;;;;;;15.82;62.85;94849.59;5073152;28;20031;-78
2023/09/04 07:48:21;;;;;;;3.53;3.22;;;;;;;15.83;61.76;94814.59;5056311;28;20031;-78
2023/09/04 07:50:48;;;;;;;4.50;3.40;;;;;;;16.18;63.25;94852.81;5073085;28;20032;-78
2023/09/04 07:53:14;;;;;;;6.15;3.20;;;;;;;16.01;62.26;94825.75;5072939;28;20036;-78
2023/09/04 07:55:39;;;;;;;5.80;3.50;;;;;;;16.15;62.28;94854.97;5089829;28;20028;-78
2023/09/04 07:58:05;;;;;;;4.28;3.47;;;;;;;16.33;62.46;94850.41;5089808;28;20089;-78
2023/09/04 08:00:30;;;;;;;3.50;3.10;;;;;;;16.38;61.12;94842.91;5092151;28;20035;-78
2023/09/04 08:02:56;;;;;;;4.53;3.17;;;;;;;16.11;60.98;94811.72;5093639;28;20543;-78
2023/09/04 08:05:21;;;;;;;5.78;3.42;;;;;;;16.07;61.36;94814.66;5059948;28;20034;-78
2023/09/04 08:07:46;;;;;;;4.82;3.50;;;;;;;16.32;61.48;94838.28;5094966;28;20024;-78
2023/09/04 08:10:13;;;;;;;4.32;3.47;;;;;;;16.44;61.27;94831.75;5093650;28;20047;-78
2023/09/04 08:12:38;;;;;;;4.05;3.28;;;;;;;16.41;62.52;94826.00;5093406;28;20047;-78
2023/09/04 08:15:04;;;;;;;3.92;3.50;;;;;;;16.73;62.13;94852.25;5076523;28;20509;-78
2023/09/04 08:17:30;;;;;;;4.05;3.30;;;;;;;16.73;60.52;94849.63;5093672;28;20043;-78
2023/09/04 08:19:55;;;;;;;3.50;3.20;;;;;;;16.62;60.89;94830.78;5076336;28;20020;-79
2023/09/04 08:22:21;;;;;;;4.55;3.50;;;;;;;16.68;61.26;94851.91;5076184;28;20547;-77
2023/09/04 08:24:48;;;;;;;4.97;3.28;;;;;;;16.61;61.08;94858.00;5093170;28;20028;-78
2023/09/04 08:27:14;;;;;;;4.57;3.55;;;;;;;16.68;61.65;94841.41;5076436;28;20036;-78
2023/09/04 08:29:39;;;;;;;4.32;3.20;;;;;;;16.39;60.22;94844.53;5094143;28;20105;-78
2023/09/04 08:32:05;;;;;;;3.58;3.10;;;;;;;16.63;60.56;94854.22;5094432;28;20036;-78
2023/09/04 08:34:30;;;;;;;3.80;3.30;;;;;;;16.55;61.06;94862.09;5093152;28;20035;-78
2023/09/04 08:36:56;;;;;;;4.28;3.33;;;;;;;16.53;60.32;94859.63;5094211;28;20036;-78
2023/09/04 08:39:21;;;;;;;3.65;3.35;;;;;;;16.47;61.01;94857.66;5093981;28;20028;-78
2023/09/04 08:41:47;;;;;;;4.03;3.30;;;;;;;16.62;60.94;94855.19;5094152;28;20081;-78
2023/09/04 08:44:12;;;;;;;5.32;3.40;;;;;;;16.69;60.61;94848.31;5094054;28;20077;-78
2023/09/04 08:46:38;;;;;;;3.67;3.33;;;;;;;16.66;60.54;94845.19;5092798;28;20028;-78
2023/09/04 08:49:03;;;;;;;6.13;3.78;;;;;;;16.42;60.12;94802.25;5092499;28;20106;-78
2023/09/04 08:51:29;;;;;;;4.60;3.00;;;;;;;16.93;61.20;94852.75;5092973;28;20036;-78
2023/09/04 08:53:56;;;;;;;3.95;3.38;;;;;;;16.91;60.02;94849.50;5092853;28;20016;-78
2023/09/04 08:56:21;;;;;;;4.00;3.30;;;;;;;16.85;60.47;94850.13;5094233;28;20102;-78
2023/09/04 08:58:47;;;;;;;5.00;3.20;;;;;;;16.89;60.21;94848.84;5092786;28;20039;-78
2023/09/04 09:01:13;;;;;;;4.00;3.45;;;;;;;16.33;60.40;94750.81;5092077;28;20074;-78
2023/09/04 09:03:40;;;;;;;6.03;3.42;;;;;;;16.87;60.29;94861.28;5093591;28;20502;-78
2023/09/04 09:06:05;;;;;;;6.15;3.60;;;;;;;16.88;60.46;94859.50;5092616;28;20028;-78
2023/09/04 09:08:31;;;;;;;4.78;3.58;;;;;;;16.95;60.39;94863.09;5092145;28;20406;-78
2023/09/04 09:10:56;;;;;;;5.57;3.60;;;;;;;16.91;60.07;94865.25;5091725;28;20029;-78
2023/09/04 09:13:22;;;;;;;4.05;3.47;;;;;;;16.86;59.98;94850.97;5091993;28;20097;-78
2023/09/04 09:15:47;;;;;;;5.70;3.65;;;;;;;16.77;60.53;94863.28;5091857;28;20048;-78
2023/09/04 09:18:13;;;;;;;5.68;3.75;;;;;;;16.36;60.68;94784.56;5093443;28;20035;-78
2023/09/04 09:20:39;;;;;;;6.25;3.70;;;;;;;17.04;60.88;94869.16;5075039;28;20036;-78
2023/09/04 09:23:05;;;;;;;4.80;3.70;;;;;;;16.90;60.06;94847.84;5092053;28;20024;-78
2023/09/04 09:25:33;;;;;;;4.75;3.40;;;;;;;16.86;59.23;94853.59;5075092;28;20031;-78
2023/09/04 09:28:00;;;;;;;4.45;3.35;;;;;;;16.99;59.03;94867.03;5091777;28;20055;-78
2023/09/04 09:30:29;;;;;;;4.03;3.63;;;;;;;16.89;60.08;94866.41;5091756;28;20032;-78
2023/09/04 09:32:56;;;;;;;4.85;3.95;;;;;;;16.96;60.81;94869.97;5092747;28;20031;-78
2023/09/04 09:35:21;;;;;;;5.50;3.95;;;;;;;16.37;60.77;94773.09;5091798;28;20165;-78
2023/09/04 09:37:47;;;;;;;4.43;4.00;;;;;;;16.86;61.27;94867.53;5092742;28;20028;-78
2023/09/04 09:40:14;;;;;;;5.10;3.63;;;;;;;16.96;60.96;94865.53;5092840;28;20035;-79
2023/09/04 09:42:41;;;;;;;4.90;3.95;;;;;;;16.89;60.98;94854.09;5091813;28;20030;-78
2023/09/04 09:45:07;;;;;;;5.40;4.50;;;;;;;16.94;61.22;94861.47;5074705;28;20397;-84
2023/09/04 09:47:33;;;;;;;5.88;4.50;;;;;;;16.19;61.06;94765.38;5074393;28;20028;-83
2023/09/04 09:49:59;;;;;;;4.47;4.05;;;;;;;16.40;62.46;94824.38;5091137;28;20481;-85
2023/09/04 09:52:24;;;;;;;5.05;4.18;;;;;;;15.92;62.68;94758.63;5057955;28;20081;-84
2023/09/04 09:54:49;;;;;;;5.32;4.25;;;;;;;16.25;62.78;94805.84;5091138;28;20028;-84
2023/09/04 09:57:16;;;;;;;4.53;4.07;;;;;;;16.71;63.76;94850.78;5091388;28;20508;-85
2023/09/04 09:59:51;;;;;;;5.90;3.97;;;;;;;16.15;64.46;94747.53;5074557;28;20166;-86
2023/09/04 10:02:21;;;;;;;7.63;4.25;;;;;;;16.04;65.02;94731.13;5058094;28;20032;-84
2023/09/04 10:04:46;;;;;;;5.40;4.10;;;;;;;16.41;64.24;94779.66;5074294;28;20032;-84
2023/09/04 10:07:17;;;;;;;5.68;4.20;;;;;;;16.51;64.88;94774.22;5091385;28;20119;-85
2023/09/04 10:09:46;;;;;;;5.45;3.95;;;;;;;16.58;63.96;94767.38;5091008;28;20470;-85
2023/09/04 10:12:24;;;;;;;5.03;4.30;;;;;;;16.25;64.77;94750.81;5057731;28;20532;-84
2023/09/04 10:14:49;;;;;;;5.15;4.53;;;;;;;16.40;62.93;94801.59;5092195;28;20028;-85
2023/09/04 10:17:19;;;;;;;6.75;4.35;;;;;;;16.79;63.83;94868.34;5057440;28;20024;-85
2023/09/04 10:19:47;;;;;;;5.63;4.53;;;;;;;16.22;63.45;94779.97;5057749;28;20036;-85
2023/09/04 10:22:20;;;;;;;5.40;4.53;;;;;;;16.84;64.34;94869.50;5056923;28;20285;-85
2023/09/04 10:24:59;;;;;;;5.45;4.25;;;;;;;16.30;64.26;94790.47;5057006;28;20447;-85
2023/09/04 10:27:26;;;;;;;6.60;4.53;;;;;;;16.18;65.53;94781.25;5074574;28;20035;-84
2023/09/04 10:30:03;;;;;;;7.20;4.90;;;;;;;15.89;65.25;94740.63;5074314;28;20107;-86
2023/09/04 10:32:29;;;;;;;6.50;4.68;;;;;;;16.28;65.41;94800.28;5057358;28;20123;-86
2023/09/04 10:34:54;;;;;;;6.20;5.10;;;;;;;16.46;67.03;94789.63;5073703;28;20032;-86
2023/09/04 10:37:20;;;;;;;5.88;4.85;;;;;;;16.12;66.46;94766.19;5056966;28;20101;-85
2023/09/04 10:39:45;;;;;;;7.43;5.60;;;;;;;16.65;66.47;94875.03;5090528;28;20428;-85
2023/09/04 10:42:11;;;;;;;6.53;5.70;;;;;;;16.01;67.75;94780.41;5090768;28;20463;-85
2023/09/04 10:44:51;;;;;;;6.63;5.18;;;;;;;16.69;69.82;94884.22;5073227;28;20478;-86
2023/09/04 10:47:16;;;;;;;6.47;5.40;;;;;;;15.99;69.57;94785.84;5073643;28;20089;-87
2023/09/04 10:49:43;;;;;;;6.18;5.15;;;;;;;16.08;70.00;94818.91;5073483;28;20036;-87
2023/09/04 10:52:09;;;;;;;7.10;5.63;;;;;;;15.46;72.55;94773.88;5090408;28;20460;-85
2023/09/04 10:54:34;;;;;;;5.93;4.90;;;;;;;15.19;72.82;94778.31;5073364;28;20081;-86
2023/09/04 10:57:02;;;;;;;6.07;5.47;;;;;;;15.80;73.82;94856.81;5073140;28;20036;-86
2023/09/04 10:59:27;;;;;;;6.45;5.25;;;;;;;15.68;75.06;94860.66;5056669;28;20039;-85
2023/09/04 11:01:53;;;;;;;6.68;5.72;;;;;;;15.30;75.10;94810.44;5073571;28;20040;-82
2023/09/04 11:04:34;;;;;;;6.68;5.97;;;;;;;15.76;75.16;94879.88;5056617;28;20034;-85
2023/09/04 11:07:32;;;;;;;7.75;6.28;;;;;;;15.56;76.55;94862.72;5090016;28;20029;-82
2023/09/04 11:10:01;;;;;;;6.10;5.43;;;;;;;15.62;76.71;94886.47;5050872;28;20118;-87
2023/09/04 11:12:26;;;;;;;7.50;5.50;;;;;;;15.15;76.45;94842.38;5089375;28;20417;-86
2023/09/04 11:14:55;;;;;;;6.88;5.32;;;;;;;15.11;76.91;94809.66;5072928;28;20225;-87
2023/09/04 11:17:31;;;;;;;8.80;5.75;;;;;;;15.36;76.05;94834.16;5073554;28;20085;-86
2023/09/04 11:19:58;;;;;;;7.03;5.43;;;;;;;15.00;75.78;94790.81;5073467;28;20016;-86
2023/09/04 11:22:24;;;;;;;6.65;5.50;;;;;;;15.15;74.26;94823.25;5073340;28;20040;-86
2023/09/04 11:24:53;;;;;;;8.38;5.35;;;;;;;15.47;74.56;94854.03;5089555;28;20085;-88
2023/09/04 11:27:20;;;;;;;6.15;5.55;;;;;;;15.57;74.87;94836.41;5073434;28;20039;-87
2023/09/04 11:29:45;;;;;;;7.35;5.65;;;;;;;15.80;74.12;94851.59;5089948;28;20097;-86